Terminal Aerodrome Forecast
Issued by NWS

Home | Current Version | Previous Version | Text Only | Print | Product List | Glossary On
Versions: 1 2 3 4 5 6 7 8 9 10 11 12 13 14 15 16 17
000
FTAK31 PANC 301126
TAFADU
TAF
PADU 301126Z 3012/0112 12015G25KT P6SM -SHRA BKN015 OVC025
     FM301500 13018G28KT 5SM -RA BR OVC012
     FM302100 15025G35KT 3SM RA BR OVC015
     FM010200 17018G27KT 4SM -RA BR OVC009
     FM010800 22015G25KT 4SM -SHRA BR OVC015=

USA.gov is the U.S. government's official web portal to all federal, state and local government web resources and services.